Time;durP1;ratioP1;P1;durP2;ratioP2;P2;SDS_P1;SDS_P2;PMS_P1;PMS_P2;Temp;Humidity;BMP_temperature;BMP_pressure;BME280_temperature;BME280_humidity;BME280_pressure;Samples;Min_cycle;Max_cycle;Signal;HPM_P1;HPM_P2
2023/12/01 00:01:31;;;;;;;11.90;10.00;;;;;;;-0.21;100.00;97879.20;109720;1251;60141;-61
2023/12/01 00:03:57;;;;;;;12.40;10.60;;;;;;;-0.23;100.00;97877.25;109591;1251;59794;-61
2023/12/01 00:06:24;;;;;;;13.20;10.50;;;;;;;-0.22;100.00;97886.27;109680;1251;72656;-61
2023/12/01 00:08:50;;;;;;;13.10;10.80;;;;;;;-0.22;100.00;97879.78;109627;1250;59692;-61
2023/12/01 00:11:17;;;;;;;14.40;10.60;;;;;;;-0.21;100.00;97886.13;109607;1251;60156;-61
2023/12/01 00:13:44;;;;;;;11.30;10.10;;;;;;;-0.20;100.00;97885.02;109734;1250;75366;-61
2023/12/01 00:16:10;;;;;;;12.00;10.70;;;;;;;-0.21;100.00;97897.45;109681;1251;66653;-62
2023/12/01 00:18:37;;;;;;;15.70;12.40;;;;;;;-0.20;100.00;97902.55;109653;1251;72676;-62
2023/12/01 00:21:04;;;;;;;15.60;13.10;;;;;;;-0.17;100.00;97892.37;109621;1251;60302;-61
2023/12/01 00:23:31;;;;;;;13.80;12.30;;;;;;;-0.17;100.00;97898.69;109679;1251;59677;-61
2023/12/01 00:25:57;;;;;;;15.80;12.40;;;;;;;-0.18;100.00;97904.70;109670;1254;74680;-61
2023/12/01 00:28:24;;;;;;;13.50;12.00;;;;;;;-0.17;100.00;97909.23;109653;1251;59762;-61
2023/12/01 00:30:51;;;;;;;14.80;12.00;;;;;;;-0.16;100.00;97903.42;109645;1251;72759;-61
2023/12/01 00:33:17;;;;;;;13.60;12.20;;;;;;;-0.14;100.00;97907.44;109662;1251;59746;-61
2023/12/01 00:35:44;;;;;;;15.10;12.30;;;;;;;-0.10;100.00;97908.94;109637;1251;60105;-61
2023/12/01 00:38:10;;;;;;;14.70;11.30;;;;;;;-0.04;100.00;97910.66;109608;1251;75438;-61
2023/12/01 00:40:37;;;;;;;14.30;11.80;;;;;;;0.02;100.00;97913.95;109634;1251;60058;-61
2023/12/01 00:43:03;;;;;;;14.00;11.70;;;;;;;0.06;100.00;97909.97;109653;1251;59719;-61
2023/12/01 00:45:30;;;;;;;14.10;12.00;;;;;;;0.08;100.00;97905.77;109621;1251;59782;-61
2023/12/01 00:47:56;;;;;;;14.00;12.00;;;;;;;0.10;100.00;97894.92;109686;1250;60437;-61
2023/12/01 00:50:23;;;;;;;12.20;10.90;;;;;;;0.13;100.00;97893.42;109699;1251;75254;-61
2023/12/01 00:52:51;;;;;;;13.80;11.40;;;;;;;0.16;100.00;97895.38;109702;1251;66625;-62
2023/12/01 00:55:17;;;;;;;14.60;11.80;;;;;;;0.17;100.00;97889.34;109621;1253;72454;-62
2023/12/01 00:57:44;;;;;;;17.20;10.60;;;;;;;0.17;100.00;97883.59;109621;1251;59692;-61
2023/12/01 01:00:11;;;;;;;12.50;11.00;;;;;;;0.15;100.00;97885.92;109545;1251;59789;-61
2023/12/01 01:02:38;;;;;;;12.10;9.90;;;;;;;0.12;100.00;97881.29;109666;1251;75409;-61
2023/12/01 01:05:05;;;;;;;12.70;11.30;;;;;;;0.13;100.00;97874.02;109614;1251;66452;-61
2023/12/01 01:07:32;;;;;;;12.60;11.10;;;;;;;0.15;100.00;97869.30;109610;1251;72694;-61
2023/12/01 01:09:58;;;;;;;13.30;11.40;;;;;;;0.17;100.00;97866.33;109628;1251;60072;-61
2023/12/01 01:12:25;;;;;;;14.00;12.60;;;;;;;0.17;100.00;97867.23;109667;1251;60157;-61
2023/12/01 01:14:52;;;;;;;17.50;13.00;;;;;;;0.15;100.00;97866.40;109615;1251;74257;-62
2023/12/01 01:17:18;;;;;;;16.20;13.20;;;;;;;0.11;100.00;97856.63;109592;1255;60152;-61
2023/12/01 01:19:45;;;;;;;16.70;13.20;;;;;;;0.08;100.00;97857.80;109676;1250;71241;-61
2023/12/01 01:22:11;;;;;;;17.30;14.10;;;;;;;0.07;100.00;97856.85;109543;1251;59860;-61
2023/12/01 01:24:38;;;;;;;18.00;14.20;;;;;;;0.07;100.00;97854.48;109649;1251;59808;-61
2023/12/01 01:27:05;;;;;;;16.40;14.80;;;;;;;0.07;100.00;97849.73;109688;1251;75441;-61
2023/12/01 01:29:31;;;;;;;15.20;13.60;;;;;;;0.08;100.00;97840.21;109690;1253;66363;-61
2023/12/01 01:31:58;;;;;;;15.80;13.30;;;;;;;0.08;100.00;97834.63;109631;1251;72811;-61
2023/12/01 01:34:24;;;;;;;15.20;12.90;;;;;;;0.07;100.00;97831.58;109642;1254;61048;-62
2023/12/01 01:36:51;;;;;;;14.40;12.90;;;;;;;0.07;100.00;97828.27;109680;1251;60361;-61
2023/12/01 01:39:17;;;;;;;13.80;12.30;;;;;;;0.06;100.00;97830.99;109594;1251;75307;-61
2023/12/01 01:41:44;;;;;;;16.00;13.10;;;;;;;0.04;100.00;97838.36;109573;1251;59791;-61
2023/12/01 01:44:10;;;;;;;16.00;12.80;;;;;;;0.03;100.00;97832.67;109556;1251;59874;-62
2023/12/01 01:46:37;;;;;;;15.20;13.10;;;;;;;0.03;100.00;97822.24;109592;1251;59828;-61
2023/12/01 01:49:05;;;;;;;12.60;11.00;;;;;;;0.02;100.00;97815.50;109613;1255;59661;-62
2023/12/01 01:51:34;;;;;;;12.60;10.40;;;;;;;0.02;100.00;97827.39;109682;1251;74283;-61
2023/12/01 01:54:02;;;;;;;12.50;11.10;;;;;;;-0.01;100.00;97830.89;109663;1251;67776;-61
2023/12/01 01:56:30;;;;;;;12.80;11.10;;;;;;;-0.03;100.00;97827.73;109650;1251;72622;-62
2023/12/01 01:58:58;;;;;;;14.20;11.00;;;;;;;-0.04;100.00;97826.64;109524;1251;60147;-61
2023/12/01 02:01:27;;;;;;;12.30;11.10;;;;;;;-0.04;100.00;97823.03;109577;1251;59697;-61
2023/12/01 02:03:54;;;;;;;13.60;11.00;;;;;;;-0.05;100.00;97816.33;109595;1251;75410;-61
2023/12/01 02:06:30;;;;;;;13.50;10.80;;;;;;;-0.05;100.00;97820.83;109617;1251;66665;-61
2023/12/01 02:09:00;;;;;;;14.30;11.30;;;;;;;-0.05;100.00;97824.48;109589;1251;72465;-61
2023/12/01 02:11:26;;;;;;;13.20;11.80;;;;;;;-0.04;100.00;97825.45;109620;1250;60786;-61
2023/12/01 02:13:53;;;;;;;12.50;11.20;;;;;;;-0.05;100.00;97829.83;109559;1249;59883;-62
2023/12/01 02:16:19;;;;;;;13.20;11.30;;;;;;;-0.04;100.00;97832.61;109705;1251;74336;-61
2023/12/01 02:18:48;;;;;;;15.40;11.90;;;;;;;-0.05;100.00;97829.75;109649;1251;66306;-61
2023/12/01 02:21:14;;;;;;;14.10;11.50;;;;;;;-0.07;100.00;97815.77;109692;1251;72666;-61
2023/12/01 02:23:41;;;;;;;12.90;11.40;;;;;;;-0.08;100.00;97816.38;109636;1251;59760;-61
2023/12/01 02:26:09;;;;;;;13.00;11.40;;;;;;;-0.08;100.00;97803.55;109653;1251;59833;-60
2023/12/01 02:28:36;;;;;;;12.80;11.50;;;;;;;-0.07;100.00;97801.88;109691;1251;73119;-61
2023/12/01 02:31:03;;;;;;;13.00;11.50;;;;;;;-0.06;100.00;97794.27;109661;1251;66463;-61
2023/12/01 02:33:30;;;;;;;12.30;11.10;;;;;;;-0.06;100.00;97809.40;109530;1251;72702;-61
2023/12/01 02:35:56;;;;;;;14.80;11.80;;;;;;;-0.05;100.00;97808.80;109598;1250;59712;-61
2023/12/01 02:38:23;;;;;;;11.80;10.50;;;;;;;-0.05;100.00;97804.48;109659;1251;59639;-61
2023/12/01 02:40:50;;;;;;;13.30;11.60;;;;;;;-0.07;100.00;97811.95;109683;1254;74030;-61
2023/12/01 02:43:18;;;;;;;14.20;12.70;;;;;;;-0.05;100.00;97812.52;109645;1252;66679;-61
2023/12/01 02:45:45;;;;;;;13.90;12.30;;;;;;;-0.04;100.00;97805.92;109660;1251;72702;-61
2023/12/01 02:48:12;;;;;;;15.30;13.40;;;;;;;-0.02;100.00;97803.59;109622;1251;59760;-61
2023/12/01 02:50:38;;;;;;;15.10;12.10;;;;;;;0.04;100.00;97802.61;109592;1251;60957;-62
2023/12/01 02:53:06;;;;;;;14.20;12.80;;;;;;;0.08;100.00;97807.46;109712;1251;75431;-62
2023/12/01 02:55:32;;;;;;;15.10;13.40;;;;;;;0.12;100.00;97804.27;109575;1251;66553;-61
2023/12/01 02:57:59;;;;;;;17.40;14.10;;;;;;;0.13;100.00;97790.60;109606;1251;72841;-61
2023/12/01 03:00:26;;;;;;;15.00;13.40;;;;;;;0.13;100.00;97803.77;109642;1251;59965;-61
2023/12/01 03:02:52;;;;;;;15.30;12.40;;;;;;;0.14;100.00;97807.23;109658;1251;59846;-61
2023/12/01 03:05:19;;;;;;;12.80;11.20;;;;;;;0.12;100.00;97795.91;109661;1251;74705;-62
2023/12/01 03:07:46;;;;;;;14.60;11.50;;;;;;;0.07;100.00;97802.78;109562;1251;68036;-61
2023/12/01 03:10:13;;;;;;;14.60;12.20;;;;;;;0.02;100.00;97807.46;109512;1251;73196;-61
2023/12/01 03:12:40;;;;;;;13.10;11.70;;;;;;;-0.02;100.00;97796.10;109633;1251;60052;-61
2023/12/01 03:15:10;;;;;;;14.20;11.30;;;;;;;-0.03;100.00;97789.23;109587;1251;59664;-61
2023/12/01 03:17:38;;;;;;;13.10;11.50;;;;;;;0.00;100.00;97801.69;109615;1251;75402;-61
2023/12/01 03:20:09;;;;;;;13.60;11.50;;;;;;;0.05;100.00;97811.02;109718;1251;66996;-61
2023/12/01 03:22:37;;;;;;;13.50;11.90;;;;;;;0.08;100.00;97790.89;109552;1251;71503;-61
2023/12/01 03:25:09;;;;;;;14.90;12.90;;;;;;;0.06;100.00;97791.89;109652;1251;60125;-61
2023/12/01 03:27:46;;;;;;;15.20;12.20;;;;;;;0.03;100.00;97800.64;109674;1251;60072;-61
2023/12/01 03:30:17;;;;;;;14.10;12.20;;;;;;;-0.01;100.00;97803.70;109598;1251;75259;-61
2023/12/01 03:32:44;;;;;;;12.80;11.40;;;;;;;-0.03;100.00;97792.46;109689;1251;67887;-62
2023/12/01 03:35:16;;;;;;;15.60;12.30;;;;;;;-0.05;100.00;97797.44;109654;1251;72435;-61
2023/12/01 03:37:42;;;;;;;15.00;12.40;;;;;;;-0.06;100.00;97809.23;109673;1251;59727;-61
2023/12/01 03:40:12;;;;;;;13.90;12.40;;;;;;;-0.05;100.00;97814.00;109711;1251;60161;-61
2023/12/01 03:42:44;;;;;;;16.90;12.80;;;;;;;-0.05;100.00;97820.50;109517;1251;76172;-61
2023/12/01 03:45:12;;;;;;;13.20;11.60;;;;;;;-0.07;100.00;97830.78;109643;1250;67862;-61
2023/12/01 03:47:39;;;;;;;14.40;12.80;;;;;;;-0.10;100.00;97822.84;109658;1251;72672;-61
2023/12/01 03:50:10;;;;;;;17.60;15.70;;;;;;;-0.11;100.00;97817.42;109627;1251;61014;-62
2023/12/01 03:52:41;;;;;;;16.10;13.10;;;;;;;-0.14;100.00;97817.16;109659;1251;60092;-61
2023/12/01 03:55:09;;;;;;;15.10;12.70;;;;;;;-0.15;100.00;97830.52;109670;1251;75554;-61
2023/12/01 03:57:36;;;;;;;18.80;15.10;;;;;;;-0.17;100.00;97844.77;109650;1251;66900;-61
2023/12/01 04:00:07;;;;;;;22.80;17.90;;;;;;;-0.17;100.00;97832.46;109619;1251;72599;-62
2023/12/01 04:02:42;;;;;;;21.60;16.90;;;;;;;-0.16;100.00;97821.70;109617;1251;59820;-62
2023/12/01 04:05:17;;;;;;;21.70;17.10;;;;;;;-0.14;100.00;97803.60;109619;1251;59996;-62
2023/12/01 04:07:50;;;;;;;25.70;16.90;;;;;;;-0.13;100.00;97785.89;109673;1250;75500;-62
2023/12/01 04:10:16;;;;;;;16.30;13.60;;;;;;;-0.13;100.00;97791.27;109609;1251;67944;-62
2023/12/01 04:12:45;;;;;;;16.10;13.10;;;;;;;-0.11;100.00;97814.79;109578;1251;72365;-62
2023/12/01 04:15:13;;;;;;;19.40;15.70;;;;;;;-0.09;100.00;97842.51;109509;1251;61201;-61
2023/12/01 04:17:42;;;;;;;19.80;15.60;;;;;;;-0.08;100.00;97860.16;109618;1251;59788;-62
2023/12/01 04:20:25;;;;;;;20.20;16.30;;;;;;;-0.06;100.00;97844.15;109638;1251;74438;-61
2023/12/01 04:23:02;;;;;;;20.80;16.40;;;;;;;-0.08;100.00;97825.51;109622;1251;66607;-61
2023/12/01 04:25:29;;;;;;;22.20;17.50;;;;;;;-0.11;100.00;97808.17;109616;1251;71432;-62
2023/12/01 04:27:57;;;;;;;18.20;15.50;;;;;;;-0.13;100.00;97805.53;109636;1251;59775;-62
2023/12/01 04:30:25;;;;;;;17.20;14.40;;;;;;;-0.12;100.00;97804.95;109681;1251;59709;-62
2023/12/01 04:32:53;;;;;;;22.00;16.70;;;;;;;-0.10;100.00;97808.09;109722;1250;75421;-62
2023/12/01 04:35:23;;;;;;;17.70;15.40;;;;;;;-0.09;100.00;97804.78;109649;1250;66476;-64
2023/12/01 04:37:51;;;;;;;15.40;13.10;;;;;;;-0.05;100.00;97803.45;109659;1251;71398;-62
2023/12/01 04:40:18;;;;;;;19.00;13.40;;;;;;;-0.03;100.00;97802.66;109584;1250;61088;-62
2023/12/01 04:42:45;;;;;;;14.40;12.20;;;;;;;-0.01;100.00;97799.91;109702;1250;60007;-64
2023/12/01 04:45:13;;;;;;;15.90;13.30;;;;;;;-0.00;100.00;97786.23;109596;1251;73948;-63
2023/12/01 04:47:43;;;;;;;15.30;12.60;;;;;;;-0.00;100.00;97775.61;109616;1251;66692;-61
2023/12/01 04:50:13;;;;;;;14.90;13.30;;;;;;;-0.02;100.00;97774.67;109676;1250;72871;-61
2023/12/01 04:52:47;;;;;;;17.90;14.80;;;;;;;-0.04;100.00;97776.98;109587;1250;59800;-62
2023/12/01 04:55:15;;;;;;;16.00;14.20;;;;;;;-0.06;100.00;97789.75;109708;1250;59791;-62
2023/12/01 04:57:42;;;;;;;17.60;14.80;;;;;;;-0.05;100.00;97796.98;109627;1250;74066;-62
2023/12/01 05:00:25;;;;;;;15.40;13.50;;;;;;;-0.02;100.00;97794.79;109717;1251;67928;-62
2023/12/01 05:02:53;;;;;;;17.80;14.60;;;;;;;-0.03;100.00;97813.84;109640;1250;72661;-64
2023/12/01 05:05:22;;;;;;;18.20;14.20;;;;;;;-0.04;100.00;97816.38;109644;1251;59899;-63
2023/12/01 05:07:51;;;;;;;17.80;14.40;;;;;;;-0.07;100.00;97800.23;109622;1250;59829;-61
2023/12/01 05:10:19;;;;;;;15.50;13.60;;;;;;;-0.11;100.00;97785.63;109663;1251;73987;-61
2023/12/01 05:12:50;;;;;;;17.10;15.30;;;;;;;-0.15;100.00;97779.93;109726;1250;67869;-64
2023/12/01 05:15:18;;;;;;;23.40;18.30;;;;;;;-0.17;100.00;97793.23;109645;1250;72527;-62
2023/12/01 05:17:47;;;;;;;32.00;22.20;;;;;;;-0.19;100.00;97803.83;109658;1251;59933;-62
2023/12/01 05:20:17;;;;;;;86.10;45.00;;;;;;;-0.19;100.00;97814.19;109660;1251;60236;-63
2023/12/01 05:22:50;;;;;;;49.80;28.80;;;;;;;-0.19;100.00;97815.02;109636;1250;75229;-69
2023/12/01 05:25:17;;;;;;;38.10;23.50;;;;;;;-0.20;100.00;97802.58;109621;1250;66431;-66
2023/12/01 05:27:51;;;;;;;37.40;22.80;;;;;;;-0.21;100.00;97790.67;109632;1251;71307;-62
2023/12/01 05:30:19;;;;;;;39.90;25.90;;;;;;;-0.22;100.00;97784.69;109572;1251;59840;-64
2023/12/01 05:32:48;;;;;;;34.00;23.70;;;;;;;-0.23;100.00;97797.45;109669;1250;59823;-62
2023/12/01 05:35:15;;;;;;;33.80;24.20;;;;;;;-0.23;100.00;97801.80;109686;1250;74445;-63
2023/12/01 05:37:47;;;;;;;38.60;25.10;;;;;;;-0.25;100.00;97803.20;109679;1251;67910;-62
2023/12/01 05:40:15;;;;;;;39.50;24.90;;;;;;;-0.28;100.00;97789.59;109550;1250;71129;-63
2023/12/01 05:42:43;;;;;;;36.50;25.00;;;;;;;-0.33;100.00;97794.61;109640;1251;60105;-63
2023/12/01 05:45:11;;;;;;;46.60;30.10;;;;;;;-0.36;100.00;97781.83;109621;1250;60046;-62
2023/12/01 05:47:44;;;;;;;53.50;31.20;;;;;;;-0.37;100.00;97779.27;109548;1251;75300;-62
2023/12/01 05:50:17;;;;;;;46.90;28.80;;;;;;;-0.34;100.00;97771.67;109616;1250;66593;-63
2023/12/01 05:52:45;;;;;;;46.50;29.30;;;;;;;-0.31;100.00;97779.26;109649;1251;71559;-62
2023/12/01 05:55:16;;;;;;;42.00;29.10;;;;;;;-0.30;100.00;97778.93;109578;1250;59873;-62
2023/12/01 05:57:48;;;;;;;65.10;38.80;;;;;;;-0.30;100.00;97757.53;109542;1250;59752;-61
2023/12/01 06:00:17;;;;;;;46.00;30.00;;;;;;;-0.30;100.00;97747.95;109615;1250;73267;-62
2023/12/01 06:02:49;;;;;;;27.70;21.40;;;;;;;-0.29;100.00;97770.87;109586;1250;67865;-61
2023/12/01 06:05:16;;;;;;;31.20;21.90;;;;;;;-0.26;100.00;97789.59;109638;1250;72491;-62
2023/12/01 06:07:44;;;;;;;26.60;19.40;;;;;;;-0.26;100.00;97781.88;109599;1250;59776;-62
2023/12/01 06:10:11;;;;;;;31.80;21.00;;;;;;;-0.27;100.00;97778.36;109641;1250;60020;-62
2023/12/01 06:12:38;;;;;;;31.90;20.70;;;;;;;-0.30;100.00;97784.70;109639;1250;75404;-62
2023/12/01 06:15:07;;;;;;;34.40;23.70;;;;;;;-0.30;100.00;97788.20;109690;1250;69300;-60
2023/12/01 06:17:34;;;;;;;33.20;22.70;;;;;;;-0.30;100.00;97792.38;109508;1251;72689;-60
2023/12/01 06:20:00;;;;;;;31.40;23.60;;;;;;;-0.29;100.00;97784.30;109646;1250;59726;-64
2023/12/01 06:22:28;;;;;;;51.50;31.50;;;;;;;-0.29;100.00;97785.15;109626;1250;59844;-62
2023/12/01 06:24:54;;;;;;;53.00;31.80;;;;;;;-0.28;100.00;97777.87;109558;1250;75504;-62
2023/12/01 06:27:22;;;;;;;47.80;30.50;;;;;;;-0.26;100.00;97774.92;109646;1250;66761;-62
2023/12/01 06:29:51;;;;;;;43.50;30.00;;;;;;;-0.25;100.00;97789.30;109538;1251;72523;-62
2023/12/01 06:32:17;;;;;;;47.20;30.60;;;;;;;-0.23;100.00;97789.42;109486;1251;61240;-60
2023/12/01 06:34:44;;;;;;;49.70;30.70;;;;;;;-0.18;100.00;97790.02;109617;1250;59638;-60
2023/12/01 06:37:13;;;;;;;45.40;29.70;;;;;;;-0.15;100.00;97790.06;109678;1250;60143;-60
2023/12/01 06:39:40;;;;;;;41.40;26.80;;;;;;;-0.12;100.00;97787.13;109708;1250;67670;-61
2023/12/01 06:42:08;;;;;;;37.70;24.30;;;;;;;-0.07;100.00;97797.29;109583;1250;72363;-60
2023/12/01 06:44:35;;;;;;;33.50;23.20;;;;;;;-0.02;100.00;97817.96;109606;1250;59949;-60
2023/12/01 06:47:02;;;;;;;30.30;20.60;;;;;;;0.02;100.00;97829.39;109638;1250;60244;-60
2023/12/01 06:49:29;;;;;;;26.20;19.30;;;;;;;0.09;100.00;97826.64;109583;1250;73939;-60
2023/12/01 06:51:56;;;;;;;25.00;19.40;;;;;;;0.16;100.00;97829.83;109482;1251;60105;-61
2023/12/01 06:54:23;;;;;;;25.60;19.20;;;;;;;0.22;100.00;97826.27;109526;1250;71083;-61
2023/12/01 06:56:49;;;;;;;27.50;19.20;;;;;;;0.29;100.00;97831.20;109609;1250;59813;-62
2023/12/01 06:59:16;;;;;;;26.90;19.10;;;;;;;0.36;100.00;97835.79;109656;1251;60373;-60
2023/12/01 07:01:42;;;;;;;26.50;19.60;;;;;;;0.40;100.00;97843.00;109684;1250;75257;-60
2023/12/01 07:04:10;;;;;;;27.60;19.00;;;;;;;0.43;100.00;97850.91;109677;1250;66408;-61
2023/12/01 07:06:36;;;;;;;28.10;18.80;;;;;;;0.44;100.00;97852.23;109496;1250;71552;-61
2023/12/01 07:09:03;;;;;;;28.60;19.90;;;;;;;0.44;100.00;97861.13;109508;1250;59990;-61
2023/12/01 07:11:30;;;;;;;29.70;19.90;;;;;;;0.43;100.00;97860.34;109532;1250;61240;-62
2023/12/01 07:13:57;;;;;;;27.90;20.50;;;;;;;0.43;100.00;97859.67;109513;1250;74281;-61
2023/12/01 07:16:23;;;;;;;26.90;18.70;;;;;;;0.43;100.00;97848.98;109536;1250;68125;-61
2023/12/01 07:18:51;;;;;;;26.50;19.80;;;;;;;0.46;100.00;97842.51;109504;1250;71714;-61
2023/12/01 07:21:17;;;;;;;30.10;20.60;;;;;;;0.48;100.00;97845.41;109570;1250;60302;-61
2023/12/01 07:23:46;;;;;;;36.70;22.50;;;;;;;0.52;100.00;97847.83;109650;1250;60098;-61
2023/12/01 07:26:12;;;;;;;32.60;23.50;;;;;;;0.55;100.00;97843.29;109615;1251;74490;-61
2023/12/01 07:28:39;;;;;;;44.60;26.70;;;;;;;0.59;100.00;97833.48;109617;1250;68051;-62
2023/12/01 07:31:06;;;;;;;50.00;28.80;;;;;;;0.62;100.00;97839.50;109572;1251;71307;-61
2023/12/01 07:33:33;;;;;;;47.10;27.90;;;;;;;0.65;100.00;97841.20;109600;1250;61290;-61
2023/12/01 07:35:59;;;;;;;48.30;28.50;;;;;;;0.65;100.00;97838.56;109682;1250;59685;-61
2023/12/01 07:38:26;;;;;;;53.70;30.30;;;;;;;0.65;100.00;97850.21;109640;1251;75496;-61
2023/12/01 07:40:53;;;;;;;60.00;32.50;;;;;;;0.67;100.00;97857.19;109685;1251;69840;-61
2023/12/01 07:43:21;;;;;;;54.80;31.20;;;;;;;0.68;100.00;97861.56;109674;1251;73111;-61
2023/12/01 07:45:47;;;;;;;52.80;30.30;;;;;;;0.71;100.00;97871.65;109668;1250;59751;-62
2023/12/01 07:48:14;;;;;;;47.80;30.70;;;;;;;0.72;100.00;97881.12;109624;1253;60935;-61
2023/12/01 07:50:41;;;;;;;56.40;31.70;;;;;;;0.72;100.00;97883.88;109656;1250;75797;-61
2023/12/01 07:53:07;;;;;;;57.80;31.10;;;;;;;0.74;100.00;97883.02;109639;1250;59835;-62
2023/12/01 07:55:34;;;;;;;55.30;31.10;;;;;;;0.76;100.00;97871.15;109637;1250;59832;-61
2023/12/01 07:58:00;;;;;;;49.80;28.70;;;;;;;0.79;100.00;97871.18;109627;1251;60730;-62
2023/12/01 08:00:27;;;;;;;47.40;28.00;;;;;;;0.82;100.00;97863.41;109700;1251;59692;-62
2023/12/01 08:02:54;;;;;;;43.80;27.30;;;;;;;0.85;100.00;97872.83;109636;1250;60320;-61
2023/12/01 08:05:23;;;;;;;45.30;26.40;;;;;;;0.88;100.00;97872.09;109642;1250;66390;-62
2023/12/01 08:07:56;;;;;;;37.00;23.70;;;;;;;0.89;100.00;97867.54;109625;1250;71005;-61
2023/12/01 08:10:25;;;;;;;35.30;22.10;;;;;;;0.91;100.00;97854.63;109684;1250;59785;-61
2023/12/01 08:12:56;;;;;;;39.30;24.30;;;;;;;0.91;100.00;97857.05;109637;1250;59682;-61
2023/12/01 08:15:23;;;;;;;34.20;21.80;;;;;;;0.91;100.00;97857.91;109630;1250;73849;-61
2023/12/01 08:17:50;;;;;;;38.70;21.50;;;;;;;0.93;100.00;97854.45;109686;1250;68033;-61
2023/12/01 08:20:18;;;;;;;33.40;21.20;;;;;;;0.97;100.00;97861.20;109607;1251;70879;-61
2023/12/01 08:22:47;;;;;;;30.70;19.90;;;;;;;1.01;100.00;97873.17;109655;1250;59691;-62
2023/12/01 08:25:14;;;;;;;29.80;19.70;;;;;;;1.08;100.00;97883.86;109629;1251;60048;-61
2023/12/01 08:27:41;;;;;;;29.80;20.10;;;;;;;1.13;100.00;97877.27;109643;1250;74173;-62
2023/12/01 08:30:08;;;;;;;32.40;21.50;;;;;;;1.13;100.00;97870.25;109632;1250;66306;-62
2023/12/01 08:32:35;;;;;;;32.70;20.80;;;;;;;1.13;100.00;97899.05;109699;1250;71200;-61
2023/12/01 08:35:02;;;;;;;38.10;23.30;;;;;;;1.15;100.00;97907.91;109615;1250;60940;-60
2023/12/01 08:37:29;;;;;;;36.20;21.80;;;;;;;1.17;100.00;97897.79;109626;1250;59625;-60
2023/12/01 08:39:55;;;;;;;36.70;23.20;;;;;;;1.18;100.00;97903.23;109619;1250;76017;-60
2023/12/01 08:42:23;;;;;;;32.90;21.90;;;;;;;1.17;100.00;97897.39;109643;1250;68095;-61
2023/12/01 08:44:50;;;;;;;31.90;20.90;;;;;;;1.19;100.00;97891.35;109635;1250;60299;-60
2023/12/01 08:47:20;;;;;;;34.90;22.20;;;;;;;1.21;100.00;97893.34;109650;1251;59792;-60
2023/12/01 08:49:49;;;;;;;33.60;22.60;;;;;;;1.24;100.00;97900.44;109645;1250;59639;-60
2023/12/01 08:52:15;;;;;;;33.70;23.50;;;;;;;1.25;100.00;97904.70;109656;1250;75471;-60
2023/12/01 08:54:42;;;;;;;34.00;22.00;;;;;;;1.28;100.00;97901.64;109679;1250;65401;-60
2023/12/01 08:57:09;;;;;;;34.20;21.10;;;;;;;1.30;100.00;97903.50;109627;1250;73117;-62
2023/12/01 08:59:35;;;;;;;31.80;19.90;;;;;;;1.34;100.00;97912.94;109647;1250;59823;-61
2023/12/01 09:02:02;;;;;;;29.00;20.10;;;;;;;1.37;100.00;97910.19;109667;1250;59763;-60
2023/12/01 09:04:29;;;;;;;34.30;22.70;;;;;;;1.39;100.00;97903.02;109520;1250;75982;-60
2023/12/01 09:06:56;;;;;;;37.20;21.40;;;;;;;1.37;100.00;97911.40;109533;1250;67942;-60
2023/12/01 09:09:22;;;;;;;37.60;22.70;;;;;;;1.33;100.00;97926.85;109510;1251;59857;-61
2023/12/01 09:11:49;;;;;;;37.80;22.60;;;;;;;1.30;100.00;97928.20;109490;1250;61339;-61
2023/12/01 09:14:16;;;;;;;36.50;22.30;;;;;;;1.30;100.00;97926.43;109544;1250;59789;-60
2023/12/01 09:16:43;;;;;;;36.30;23.20;;;;;;;1.30;100.00;97935.99;109507;1250;74779;-61
2023/12/01 09:19:10;;;;;;;37.50;23.40;;;;;;;1.31;100.00;97940.42;109515;1250;66679;-60
2023/12/01 09:21:37;;;;;;;36.80;23.40;;;;;;;1.34;100.00;97940.13;109519;1250;71373;-61
2023/12/01 09:24:04;;;;;;;35.50;24.20;;;;;;;1.39;100.00;97934.90;109507;1250;59795;-61
2023/12/01 09:26:31;;;;;;;37.30;24.00;;;;;;;1.40;100.00;97913.89;109547;1250;60248;-61
2023/12/01 09:28:58;;;;;;;41.10;24.10;;;;;;;1.39;100.00;97912.23;109514;1250;73182;-62
2023/12/01 09:31:24;;;;;;;39.60;24.70;;;;;;;1.36;100.00;97904.52;109507;1251;67204;-61
2023/12/01 09:33:51;;;;;;;45.20;26.10;;;;;;;1.34;100.00;97899.66;109525;1250;72757;-61
2023/12/01 09:36:18;;;;;;;39.00;24.90;;;;;;;1.34;100.00;97905.54;109541;1250;59736;-61
2023/12/01 09:38:46;;;;;;;42.30;25.60;;;;;;;1.36;100.00;97914.85;109539;1250;59685;-61
2023/12/01 09:41:12;;;;;;;44.40;26.50;;;;;;;1.37;100.00;97915.95;109534;1251;75489;-61
2023/12/01 09:43:41;;;;;;;41.60;26.30;;;;;;;1.36;100.00;97901.48;109562;1250;67853;-61
2023/12/01 09:46:07;;;;;;;46.00;25.80;;;;;;;1.34;100.00;97910.51;109531;1250;71772;-60
2023/12/01 09:48:37;;;;;;;52.40;27.40;;;;;;;1.32;100.00;97925.39;109429;1251;60508;-60
2023/12/01 09:51:04;;;;;;;44.90;26.40;;;;;;;1.29;100.00;97896.61;109464;1251;60364;-60
2023/12/01 09:53:30;;;;;;;45.70;27.20;;;;;;;1.30;100.00;97885.16;109297;1251;237850;-61
2023/12/01 09:55:57;;;;;;;40.40;24.60;;;;;;;1.32;100.00;97890.98;109543;1250;60111;-60
2023/12/01 09:58:24;;;;;;;39.80;24.50;;;;;;;1.32;100.00;97895.46;109564;1250;71394;-60
2023/12/01 10:00:50;;;;;;;38.20;24.30;;;;;;;1.33;100.00;97893.15;109555;1251;60587;-61
2023/12/01 10:03:17;;;;;;;43.40;24.80;;;;;;;1.32;100.00;97883.08;109566;1250;60173;-60
2023/12/01 10:05:44;;;;;;;36.00;24.20;;;;;;;1.29;100.00;97872.39;109592;1250;75371;-62
2023/12/01 10:08:11;;;;;;;45.30;25.80;;;;;;;1.27;100.00;97889.52;109559;1251;67106;-64
2023/12/01 10:10:40;;;;;;;35.00;23.30;;;;;;;1.25;100.00;97914.70;109510;1251;71661;-61
2023/12/01 10:13:07;;;;;;;38.00;22.60;;;;;;;1.23;100.00;97911.98;109532;1250;59964;-61
2023/12/01 10:15:38;;;;;;;42.60;23.10;;;;;;;1.24;100.00;97897.13;109500;1250;60526;-61
2023/12/01 10:18:11;;;;;;;37.60;22.90;;;;;;;1.24;100.00;97895.67;109552;1250;74226;-61
2023/12/01 10:20:58;;;;;;;37.60;23.10;;;;;;;1.26;100.00;97901.61;109585;1250;67698;-61
2023/12/01 10:23:27;;;;;;;49.90;25.30;;;;;;;1.33;100.00;97905.80;109524;1250;71129;-63
2023/12/01 10:25:53;;;;;;;47.70;27.30;;;;;;;1.44;100.00;97903.16;109485;1251;59969;-64
2023/12/01 10:28:20;;;;;;;39.60;24.40;;;;;;;1.54;100.00;97902.64;109523;1250;59985;-62
2023/12/01 10:30:54;;;;;;;36.90;22.50;;;;;;;1.63;100.00;97915.24;109611;1251;75353;-62
2023/12/01 10:33:21;;;;;;;29.30;20.50;;;;;;;1.69;100.00;97923.75;109677;1251;67859;-61
2023/12/01 10:36:08;;;;;;;30.30;19.60;;;;;;;1.73;100.00;97927.69;109596;1250;71131;-61
2023/12/01 10:38:36;;;;;;;25.70;18.20;;;;;;;1.76;100.00;97916.89;109634;1250;60468;-61
2023/12/01 10:41:03;;;;;;;24.20;16.30;;;;;;;1.77;100.00;97924.46;109675;1250;60331;-60
2023/12/01 10:43:31;;;;;;;21.40;16.40;;;;;;;1.77;100.00;97925.16;109679;1250;75274;-61
2023/12/01 10:46:07;;;;;;;21.90;16.80;;;;;;;1.76;100.00;97930.86;109649;1251;66492;-61
2023/12/01 10:48:34;;;;;;;27.20;19.00;;;;;;;1.78;100.00;97941.16;109636;1250;70166;-60
2023/12/01 10:51:03;;;;;;;25.90;17.80;;;;;;;1.80;100.00;97950.71;109639;1251;61010;-60
2023/12/01 10:53:30;;;;;;;27.20;20.10;;;;;;;1.85;100.00;97935.08;109674;1250;59997;-61
2023/12/01 10:56:02;;;;;;;28.50;18.90;;;;;;;1.90;100.00;97936.27;109643;1250;75365;-60
2023/12/01 10:58:37;;;;;;;24.90;18.30;;;;;;;1.99;100.00;97928.79;109585;1251;66447;-60
2023/12/01 11:01:04;;;;;;;19.50;16.50;;;;;;;2.09;100.00;97928.28;109622;1251;72951;-61
2023/12/01 11:03:34;;;;;;;19.40;15.30;;;;;;;2.17;100.00;97928.83;109604;1251;59805;-61
2023/12/01 11:06:03;;;;;;;23.20;17.70;;;;;;;2.20;100.00;97925.37;109690;1250;59658;-61
2023/12/01 11:08:38;;;;;;;20.50;16.20;;;;;;;2.22;100.00;97915.52;109664;1251;73996;-61
2023/12/01 11:11:21;;;;;;;17.90;14.90;;;;;;;2.27;100.00;97912.72;109705;1250;67928;-62